sensor_id;sensor_type;location;lat;lon;timestamp;P1;durP1;ratioP1;P2;durP2;ratioP2
485;SDS011;229;48.734;9.340;2022-09-09T00:02:19;2.58;;;2.10;;
485;SDS011;229;48.734;9.340;2022-09-09T00:04:48;2.92;;;2.33;;
485;SDS011;229;48.734;9.340;2022-09-09T00:07:21;4.00;;;2.30;;
485;SDS011;229;48.734;9.340;2022-09-09T00:09:53;4.68;;;2.55;;
485;SDS011;229;48.734;9.340;2022-09-09T00:12:24;4.28;;;2.28;;
485;SDS011;229;48.734;9.340;2022-09-09T00:14:54;7.65;;;2.22;;
485;SDS011;229;48.734;9.340;2022-09-09T00:17:30;3.42;;;2.35;;
485;SDS011;229;48.734;9.340;2022-09-09T00:19:59;5.03;;;2.45;;
485;SDS011;229;48.734;9.340;2022-09-09T00:22:29;5.05;;;2.85;;
485;SDS011;229;48.734;9.340;2022-09-09T00:24:58;3.10;;;2.40;;
485;SDS011;229;48.734;9.340;2022-09-09T00:27:30;3.65;;;2.20;;
485;SDS011;229;48.734;9.340;2022-09-09T00:30:12;4.50;;;2.30;;
485;SDS011;229;48.734;9.340;2022-09-09T00:32:48;6.28;;;2.30;;
485;SDS011;229;48.734;9.340;2022-09-09T00:35:24;8.27;;;2.15;;
485;SDS011;229;48.734;9.340;2022-09-09T00:37:52;6.22;;;2.30;;
485;SDS011;229;48.734;9.340;2022-09-09T00:40:22;7.72;;;2.60;;
485;SDS011;229;48.734;9.340;2022-09-09T00:42:53;1.98;;;1.70;;
485;SDS011;229;48.734;9.340;2022-09-09T00:45:30;4.93;;;2.35;;
485;SDS011;229;48.734;9.340;2022-09-09T00:47:59;4.78;;;2.22;;
485;SDS011;229;48.734;9.340;2022-09-09T00:50:35;3.40;;;2.35;;
485;SDS011;229;48.734;9.340;2022-09-09T00:53:10;6.80;;;2.63;;
485;SDS011;229;48.734;9.340;2022-09-09T00:55:43;2.70;;;2.30;;
485;SDS011;229;48.734;9.340;2022-09-09T00:58:13;3.33;;;2.10;;
485;SDS011;229;48.734;9.340;2022-09-09T01:00:42;8.40;;;2.45;;
485;SDS011;229;48.734;9.340;2022-09-09T01:03:17;2.63;;;1.90;;
485;SDS011;229;48.734;9.340;2022-09-09T01:05:51;4.68;;;2.58;;
485;SDS011;229;48.734;9.340;2022-09-09T01:08:28;3.35;;;2.20;;
485;SDS011;229;48.734;9.340;2022-09-09T01:10:59;3.80;;;1.92;;
485;SDS011;229;48.734;9.340;2022-09-09T01:13:28;3.63;;;2.10;;
485;SDS011;229;48.734;9.340;2022-09-09T01:15:56;6.85;;;2.42;;
485;SDS011;229;48.734;9.340;2022-09-09T01:18:26;3.40;;;2.05;;
485;SDS011;229;48.734;9.340;2022-09-09T01:20:55;2.45;;;2.10;;
485;SDS011;229;48.734;9.340;2022-09-09T01:23:33;2.88;;;2.60;;
485;SDS011;229;48.734;9.340;2022-09-09T01:28:51;4.28;;;2.30;;
485;SDS011;229;48.734;9.340;2022-09-09T01:31:20;4.18;;;2.50;;
485;SDS011;229;48.734;9.340;2022-09-09T01:33:48;6.07;;;2.58;;
485;SDS011;229;48.734;9.340;2022-09-09T01:36:18;3.67;;;2.50;;
485;SDS011;229;48.734;9.340;2022-09-09T01:38:46;4.75;;;2.33;;
485;SDS011;229;48.734;9.340;2022-09-09T01:41:14;3.70;;;2.20;;
485;SDS011;229;48.734;9.340;2022-09-09T01:43:41;4.72;;;2.50;;
485;SDS011;229;48.734;9.340;2022-09-09T01:46:10;2.60;;;2.10;;
485;SDS011;229;48.734;9.340;2022-09-09T01:48:38;8.07;;;2.40;;
485;SDS011;229;48.734;9.340;2022-09-09T01:51:07;2.95;;;2.17;;
485;SDS011;229;48.734;9.340;2022-09-09T01:53:35;5.40;;;2.35;;
485;SDS011;229;48.734;9.340;2022-09-09T01:56:05;2.83;;;2.58;;
485;SDS011;229;48.734;9.340;2022-09-09T01:58:36;3.45;;;2.17;;
485;SDS011;229;48.734;9.340;2022-09-09T02:01:09;3.47;;;2.00;;
485;SDS011;229;48.734;9.340;2022-09-09T02:03:39;5.03;;;2.55;;
485;SDS011;229;48.734;9.340;2022-09-09T02:06:11;3.47;;;2.00;;
485;SDS011;229;48.734;9.340;2022-09-09T02:08:43;5.45;;;2.05;;
485;SDS011;229;48.734;9.340;2022-09-09T02:11:12;8.55;;;2.45;;
485;SDS011;229;48.734;9.340;2022-09-09T02:13:40;11.07;;;3.30;;
485;SDS011;229;48.734;9.340;2022-09-09T02:16:08;3.38;;;2.10;;
485;SDS011;229;48.734;9.340;2022-09-09T02:18:40;4.80;;;2.20;;
485;SDS011;229;48.734;9.340;2022-09-09T02:21:09;2.30;;;2.00;;
485;SDS011;229;48.734;9.340;2022-09-09T02:23:38;5.88;;;2.25;;
485;SDS011;229;48.734;9.340;2022-09-09T02:26:07;5.13;;;2.35;;
485;SDS011;229;48.734;9.340;2022-09-09T02:28:36;3.95;;;2.67;;
485;SDS011;229;48.734;9.340;2022-09-09T02:31:05;4.25;;;2.38;;
485;SDS011;229;48.734;9.340;2022-09-09T02:33:33;5.78;;;2.35;;
485;SDS011;229;48.734;9.340;2022-09-09T02:36:03;4.53;;;2.40;;
485;SDS011;229;48.734;9.340;2022-09-09T02:38:32;5.03;;;2.10;;
485;SDS011;229;48.734;9.340;2022-09-09T02:41:01;16.58;;;3.05;;
485;SDS011;229;48.734;9.340;2022-09-09T02:43:30;7.07;;;2.30;;
485;SDS011;229;48.734;9.340;2022-09-09T02:46:00;6.78;;;2.60;;
485;SDS011;229;48.734;9.340;2022-09-09T02:48:30;5.53;;;2.13;;
485;SDS011;229;48.734;9.340;2022-09-09T02:51:00;2.58;;;1.88;;
485;SDS011;229;48.734;9.340;2022-09-09T02:53:32;10.07;;;2.63;;
485;SDS011;229;48.734;9.340;2022-09-09T02:56:04;4.68;;;2.53;;
485;SDS011;229;48.734;9.340;2022-09-09T02:58:32;3.05;;;2.45;;
485;SDS011;229;48.734;9.340;2022-09-09T03:00:59;5.88;;;2.72;;
485;SDS011;229;48.734;9.340;2022-09-09T03:03:28;4.43;;;2.30;;
485;SDS011;229;48.734;9.340;2022-09-09T03:05:55;6.50;;;2.78;;
485;SDS011;229;48.734;9.340;2022-09-09T03:08:23;6.18;;;2.55;;
485;SDS011;229;48.734;9.340;2022-09-09T03:10:51;3.92;;;2.60;;
485;SDS011;229;48.734;9.340;2022-09-09T03:13:19;5.90;;;2.83;;
485;SDS011;229;48.734;9.340;2022-09-09T03:15:47;3.17;;;2.40;;
485;SDS011;229;48.734;9.340;2022-09-09T03:18:14;4.13;;;2.85;;
485;SDS011;229;48.734;9.340;2022-09-09T03:20:41;5.35;;;3.38;;
485;SDS011;229;48.734;9.340;2022-09-09T03:23:08;11.50;;;3.30;;
485;SDS011;229;48.734;9.340;2022-09-09T03:25:36;6.13;;;3.17;;
485;SDS011;229;48.734;9.340;2022-09-09T03:28:04;4.18;;;3.15;;
485;SDS011;229;48.734;9.340;2022-09-09T03:30:32;5.13;;;3.25;;
485;SDS011;229;48.734;9.340;2022-09-09T03:32:59;8.70;;;3.50;;
485;SDS011;229;48.734;9.340;2022-09-09T03:35:26;7.00;;;3.30;;
485;SDS011;229;48.734;9.340;2022-09-09T03:37:54;6.45;;;3.35;;
485;SDS011;229;48.734;9.340;2022-09-09T03:40:21;5.65;;;3.65;;
485;SDS011;229;48.734;9.340;2022-09-09T03:42:48;8.43;;;3.10;;
485;SDS011;229;48.734;9.340;2022-09-09T03:45:17;5.65;;;3.78;;
485;SDS011;229;48.734;9.340;2022-09-09T03:47:44;5.70;;;3.10;;
485;SDS011;229;48.734;9.340;2022-09-09T03:50:11;6.00;;;3.30;;
485;SDS011;229;48.734;9.340;2022-09-09T03:52:39;12.80;;;4.45;;
485;SDS011;229;48.734;9.340;2022-09-09T03:55:07;6.18;;;4.15;;
485;SDS011;229;48.734;9.340;2022-09-09T03:57:34;8.43;;;3.55;;
485;SDS011;229;48.734;9.340;2022-09-09T04:00:02;5.47;;;3.22;;
485;SDS011;229;48.734;9.340;2022-09-09T04:02:31;10.02;;;3.22;;
485;SDS011;229;48.734;9.340;2022-09-09T04:04:58;5.63;;;3.08;;
485;SDS011;229;48.734;9.340;2022-09-09T04:07:26;7.43;;;3.00;;
485;SDS011;229;48.734;9.340;2022-09-09T04:09:53;4.97;;;3.10;;
485;SDS011;229;48.734;9.340;2022-09-09T04:12:20;5.18;;;3.10;;
485;SDS011;229;48.734;9.340;2022-09-09T04:14:47;6.32;;;3.00;;
485;SDS011;229;48.734;9.340;2022-09-09T04:17:15;10.02;;;3.13;;
485;SDS011;229;48.734;9.340;2022-09-09T04:19:43;5.18;;;2.92;;
485;SDS011;229;48.734;9.340;2022-09-09T04:22:11;3.95;;;2.75;;
485;SDS011;229;48.734;9.340;2022-09-09T04:24:38;6.13;;;2.90;;
485;SDS011;229;48.734;9.340;2022-09-09T04:27:05;5.88;;;3.10;;
485;SDS011;229;48.734;9.340;2022-09-09T04:29:33;3.40;;;2.63;;
485;SDS011;229;48.734;9.340;2022-09-09T04:32:00;4.32;;;2.67;;
485;SDS011;229;48.734;9.340;2022-09-09T04:34:27;7.97;;;2.80;;
485;SDS011;229;48.734;9.340;2022-09-09T04:36:56;4.55;;;2.60;;
485;SDS011;229;48.734;9.340;2022-09-09T04:39:25;7.97;;;2.90;;
485;SDS011;229;48.734;9.340;2022-09-09T04:41:52;6.90;;;3.15;;
485;SDS011;229;48.734;9.340;2022-09-09T04:44:20;3.55;;;3.00;;
485;SDS011;229;48.734;9.340;2022-09-09T04:46:47;4.03;;;2.65;;
485;SDS011;229;48.734;9.340;2022-09-09T04:49:14;9.50;;;2.78;;
485;SDS011;229;48.734;9.340;2022-09-09T04:51:41;5.53;;;3.05;;
485;SDS011;229;48.734;9.340;2022-09-09T04:54:10;5.05;;;3.28;;
485;SDS011;229;48.734;9.340;2022-09-09T04:56:37;7.15;;;2.92;;
485;SDS011;229;48.734;9.340;2022-09-09T04:59:06;5.70;;;3.60;;
485;SDS011;229;48.734;9.340;2022-09-09T05:01:34;5.40;;;3.78;;
485;SDS011;229;48.734;9.340;2022-09-09T05:04:02;9.45;;;3.40;;
485;SDS011;229;48.734;9.340;2022-09-09T05:06:29;3.95;;;3.55;;
485;SDS011;229;48.734;9.340;2022-09-09T05:08:56;3.65;;;3.33;;
485;SDS011;229;48.734;9.340;2022-09-09T05:11:26;4.28;;;2.70;;
485;SDS011;229;48.734;9.340;2022-09-09T05:13:54;7.55;;;4.05;;
485;SDS011;229;48.734;9.340;2022-09-09T05:16:21;4.53;;;3.10;;
485;SDS011;229;48.734;9.340;2022-09-09T05:18:48;3.42;;;3.25;;
485;SDS011;229;48.734;9.340;2022-09-09T05:21:17;3.53;;;2.83;;
485;SDS011;229;48.734;9.340;2022-09-09T05:23:44;3.03;;;2.60;;
485;SDS011;229;48.734;9.340;2022-09-09T05:26:12;6.97;;;2.80;;
485;SDS011;229;48.734;9.340;2022-09-09T05:28:41;6.57;;;2.75;;
485;SDS011;229;48.734;9.340;2022-09-09T05:31:09;5.00;;;3.15;;
485;SDS011;229;48.734;9.340;2022-09-09T05:33:37;5.07;;;3.08;;
485;SDS011;229;48.734;9.340;2022-09-09T05:36:07;5.30;;;3.40;;
485;SDS011;229;48.734;9.340;2022-09-09T05:38:35;4.38;;;3.03;;
485;SDS011;229;48.734;9.340;2022-09-09T05:41:03;2.88;;;2.70;;
485;SDS011;229;48.734;9.340;2022-09-09T05:43:30;5.07;;;3.20;;
485;SDS011;229;48.734;9.340;2022-09-09T05:46:02;5.70;;;3.25;;
485;SDS011;229;48.734;9.340;2022-09-09T05:48:30;5.97;;;3.10;;
485;SDS011;229;48.734;9.340;2022-09-09T05:50:58;3.45;;;2.78;;
485;SDS011;229;48.734;9.340;2022-09-09T05:53:25;5.00;;;3.55;;
485;SDS011;229;48.734;9.340;2022-09-09T05:55:58;3.33;;;2.95;;
485;SDS011;229;48.734;9.340;2022-09-09T05:58:25;3.58;;;2.95;;
485;SDS011;229;48.734;9.340;2022-09-09T06:00:52;3.50;;;2.95;;
485;SDS011;229;48.734;9.340;2022-09-09T06:03:21;5.95;;;3.80;;
485;SDS011;229;48.734;9.340;2022-09-09T06:05:56;4.47;;;3.10;;
485;SDS011;229;48.734;9.340;2022-09-09T06:08:23;4.53;;;2.90;;
485;SDS011;229;48.734;9.340;2022-09-09T06:10:51;3.88;;;2.85;;
485;SDS011;229;48.734;9.340;2022-09-09T06:13:18;6.13;;;3.70;;
485;SDS011;229;48.734;9.340;2022-09-09T06:15:49;4.65;;;3.05;;
485;SDS011;229;48.734;9.340;2022-09-09T06:18:17;4.53;;;2.90;;
485;SDS011;229;48.734;9.340;2022-09-09T06:20:54;4.15;;;2.97;;
485;SDS011;229;48.734;9.340;2022-09-09T06:23:21;4.88;;;3.20;;
485;SDS011;229;48.734;9.340;2022-09-09T06:25:48;4.97;;;3.20;;
485;SDS011;229;48.734;9.340;2022-09-09T06:28:16;8.70;;;3.58;;
485;SDS011;229;48.734;9.340;2022-09-09T06:30:44;5.50;;;4.18;;
485;SDS011;229;48.734;9.340;2022-09-09T06:33:12;7.05;;;2.78;;
485;SDS011;229;48.734;9.340;2022-09-09T06:35:40;8.60;;;3.30;;
485;SDS011;229;48.734;9.340;2022-09-09T06:38:08;6.55;;;3.40;;
485;SDS011;229;48.734;9.340;2022-09-09T06:40:36;4.03;;;3.05;;
485;SDS011;229;48.734;9.340;2022-09-09T06:43:03;7.45;;;3.35;;
485;SDS011;229;48.734;9.340;2022-09-09T06:45:31;6.15;;;3.30;;
485;SDS011;229;48.734;9.340;2022-09-09T06:47:58;4.88;;;2.90;;
485;SDS011;229;48.734;9.340;2022-09-09T06:50:25;5.18;;;3.35;;
485;SDS011;229;48.734;9.340;2022-09-09T06:52:52;4.90;;;3.60;;
485;SDS011;229;48.734;9.340;2022-09-09T06:55:21;8.20;;;3.70;;
485;SDS011;229;48.734;9.340;2022-09-09T06:57:48;5.05;;;4.32;;
485;SDS011;229;48.734;9.340;2022-09-09T07:00:16;6.20;;;3.88;;
485;SDS011;229;48.734;9.340;2022-09-09T07:02:44;4.00;;;3.22;;
485;SDS011;229;48.734;9.340;2022-09-09T07:05:11;3.95;;;3.15;;
485;SDS011;229;48.734;9.340;2022-09-09T07:07:40;4.15;;;3.45;;
485;SDS011;229;48.734;9.340;2022-09-09T07:10:08;10.27;;;3.60;;
485;SDS011;229;48.734;9.340;2022-09-09T07:12:36;5.10;;;3.50;;
485;SDS011;229;48.734;9.340;2022-09-09T07:15:04;3.42;;;3.17;;
485;SDS011;229;48.734;9.340;2022-09-09T07:17:31;7.28;;;3.72;;
485;SDS011;229;48.734;9.340;2022-09-09T07:19:58;6.40;;;3.40;;
485;SDS011;229;48.734;9.340;2022-09-09T07:22:27;7.05;;;4.32;;
485;SDS011;229;48.734;9.340;2022-09-09T07:24:54;5.07;;;3.60;;
485;SDS011;229;48.734;9.340;2022-09-09T07:27:21;3.70;;;3.50;;
485;SDS011;229;48.734;9.340;2022-09-09T07:29:50;5.15;;;3.65;;
485;SDS011;229;48.734;9.340;2022-09-09T07:32:19;5.43;;;3.40;;
485;SDS011;229;48.734;9.340;2022-09-09T07:34:46;7.35;;;4.10;;
485;SDS011;229;48.734;9.340;2022-09-09T07:37:15;5.20;;;3.80;;
485;SDS011;229;48.734;9.340;2022-09-09T07:39:42;8.00;;;4.07;;
485;SDS011;229;48.734;9.340;2022-09-09T07:42:10;8.10;;;4.73;;
485;SDS011;229;48.734;9.340;2022-09-09T07:44:38;4.90;;;4.60;;
485;SDS011;229;48.734;9.340;2022-09-09T07:47:07;10.23;;;4.75;;
485;SDS011;229;48.734;9.340;2022-09-09T07:49:34;8.77;;;4.22;;
485;SDS011;229;48.734;9.340;2022-09-09T07:52:01;5.40;;;4.30;;
485;SDS011;229;48.734;9.340;2022-09-09T07:54:28;8.13;;;4.20;;
485;SDS011;229;48.734;9.340;2022-09-09T07:56:57;5.77;;;4.10;;
485;SDS011;229;48.734;9.340;2022-09-09T07:59:24;7.33;;;5.23;;
485;SDS011;229;48.734;9.340;2022-09-09T08:01:52;5.07;;;4.43;;
485;SDS011;229;48.734;9.340;2022-09-09T08:04:22;5.33;;;4.87;;
485;SDS011;229;48.734;9.340;2022-09-09T08:06:50;7.23;;;4.90;;
485;SDS011;229;48.734;9.340;2022-09-09T08:09:18;4.80;;;4.47;;
485;SDS011;229;48.734;9.340;2022-09-09T08:11:46;8.03;;;5.20;;
485;SDS011;229;48.734;9.340;2022-09-09T08:14:13;7.27;;;4.83;;
485;SDS011;229;48.734;9.340;2022-09-09T08:16:42;5.20;;;4.30;;
485;SDS011;229;48.734;9.340;2022-09-09T08:19:09;6.73;;;4.57;;
485;SDS011;229;48.734;9.340;2022-09-09T08:21:38;5.80;;;4.77;;
485;SDS011;229;48.734;9.340;2022-09-09T08:24:07;6.40;;;4.43;;
485;SDS011;229;48.734;9.340;2022-09-09T08:26:36;6.00;;;5.00;;
485;SDS011;229;48.734;9.340;2022-09-09T08:29:04;5.50;;;5.23;;
485;SDS011;229;48.734;9.340;2022-09-09T08:31:32;5.27;;;4.27;;
485;SDS011;229;48.734;9.340;2022-09-09T08:34:00;6.03;;;4.00;;
485;SDS011;229;48.734;9.340;2022-09-09T08:36:29;11.10;;;5.23;;
485;SDS011;229;48.734;9.340;2022-09-09T08:38:59;5.00;;;4.70;;
485;SDS011;229;48.734;9.340;2022-09-09T08:44:14;4.93;;;4.63;;
485;SDS011;229;48.734;9.340;2022-09-09T08:46:46;6.73;;;5.30;;
485;SDS011;229;48.734;9.340;2022-09-09T08:52:15;4.40;;;4.10;;
485;SDS011;229;48.734;9.340;2022-09-09T08:54:45;4.93;;;4.63;;
485;SDS011;229;48.734;9.340;2022-09-09T08:57:14;5.03;;;3.90;;
485;SDS011;229;48.734;9.340;2022-09-09T08:59:43;6.43;;;5.27;;
485;SDS011;229;48.734;9.340;2022-09-09T09:02:14;5.33;;;4.50;;
485;SDS011;229;48.734;9.340;2022-09-09T09:04:45;5.00;;;4.70;;
485;SDS011;229;48.734;9.340;2022-09-09T09:07:21;5.10;;;4.80;;
485;SDS011;229;48.734;9.340;2022-09-09T09:09:53;6.50;;;5.07;;
485;SDS011;229;48.734;9.340;2022-09-09T09:12:24;6.67;;;4.73;;
485;SDS011;229;48.734;9.340;2022-09-09T09:14:52;4.87;;;4.57;;
485;SDS011;229;48.734;9.340;2022-09-09T09:17:21;6.77;;;5.20;;
485;SDS011;229;48.734;9.340;2022-09-09T09:19:50;6.80;;;5.20;;
485;SDS011;229;48.734;9.340;2022-09-09T09:22:18;6.50;;;4.60;;
485;SDS011;229;48.734;9.340;2022-09-09T09:24:50;5.53;;;5.23;;
485;SDS011;229;48.734;9.340;2022-09-09T09:27:21;7.27;;;5.03;;
485;SDS011;229;48.734;9.340;2022-09-09T09:29:54;7.90;;;4.40;;
485;SDS011;229;48.734;9.340;2022-09-09T09:32:22;5.43;;;4.80;;
485;SDS011;229;48.734;9.340;2022-09-09T09:34:51;7.00;;;5.00;;
485;SDS011;229;48.734;9.340;2022-09-09T09:37:21;4.73;;;4.43;;
485;SDS011;229;48.734;9.340;2022-09-09T09:39:49;5.63;;;4.13;;
485;SDS011;229;48.734;9.340;2022-09-09T09:42:17;6.33;;;4.80;;
485;SDS011;229;48.734;9.340;2022-09-09T09:44:46;7.00;;;4.10;;
485;SDS011;229;48.734;9.340;2022-09-09T09:47:13;5.37;;;4.30;;
485;SDS011;229;48.734;9.340;2022-09-09T09:49:50;5.40;;;5.10;;
485;SDS011;229;48.734;9.340;2022-09-09T09:52:20;3.50;;;3.30;;
485;SDS011;229;48.734;9.340;2022-09-09T09:54:49;3.90;;;3.70;;
485;SDS011;229;48.734;9.340;2022-09-09T09:57:17;3.60;;;3.40;;
485;SDS011;229;48.734;9.340;2022-09-09T09:59:46;3.30;;;3.10;;
485;SDS011;229;48.734;9.340;2022-09-09T10:02:14;4.27;;;4.00;;
485;SDS011;229;48.734;9.340;2022-09-09T10:04:42;4.57;;;4.27;;
485;SDS011;229;48.734;9.340;2022-09-09T10:07:10;4.40;;;4.10;;
485;SDS011;229;48.734;9.340;2022-09-09T10:09:38;3.97;;;3.77;;
485;SDS011;229;48.734;9.340;2022-09-09T10:12:08;4.63;;;4.33;;
485;SDS011;229;48.734;9.340;2022-09-09T10:14:40;4.27;;;4.00;;
485;SDS011;229;48.734;9.340;2022-09-09T10:17:15;4.77;;;4.47;;
485;SDS011;229;48.734;9.340;2022-09-09T10:19:47;4.73;;;4.43;;
485;SDS011;229;48.734;9.340;2022-09-09T10:22:23;9.73;;;4.70;;
485;SDS011;229;48.734;9.340;2022-09-09T10:27:43;3.90;;;3.70;;
485;SDS011;229;48.734;9.340;2022-09-09T10:30:16;4.87;;;4.53;;
485;SDS011;229;48.734;9.340;2022-09-09T10:32:49;4.83;;;4.53;;
485;SDS011;229;48.734;9.340;2022-09-09T10:35:24;5.27;;;4.97;;
485;SDS011;229;48.734;9.340;2022-09-09T10:37:56;5.20;;;4.90;;
485;SDS011;229;48.734;9.340;2022-09-09T10:40:30;4.60;;;4.30;;
485;SDS011;229;48.734;9.340;2022-09-09T10:43:00;5.13;;;4.83;;
485;SDS011;229;48.734;9.340;2022-09-09T10:45:28;5.07;;;4.40;;
485;SDS011;229;48.734;9.340;2022-09-09T10:48:07;5.23;;;5.00;;
485;SDS011;229;48.734;9.340;2022-09-09T10:50:44;4.93;;;4.63;;
485;SDS011;229;48.734;9.340;2022-09-09T10:53:17;5.80;;;4.40;;
485;SDS011;229;48.734;9.340;2022-09-09T10:55:50;8.13;;;5.50;;
485;SDS011;229;48.734;9.340;2022-09-09T10:58:20;4.90;;;4.40;;
485;SDS011;229;48.734;9.340;2022-09-09T11:00:51;6.73;;;4.70;;
485;SDS011;229;48.734;9.340;2022-09-09T11:03:21;4.37;;;4.07;;
485;SDS011;229;48.734;9.340;2022-09-09T11:05:51;4.80;;;4.00;;
485;SDS011;229;48.734;9.340;2022-09-09T11:08:22;5.20;;;4.50;;
485;SDS011;229;48.734;9.340;2022-09-09T11:10:51;4.30;;;4.03;;
485;SDS011;229;48.734;9.340;2022-09-09T11:13:22;4.10;;;3.90;;
485;SDS011;229;48.734;9.340;2022-09-09T11:15:52;4.50;;;4.20;;
485;SDS011;229;48.734;9.340;2022-09-09T11:18:21;4.30;;;4.00;;
485;SDS011;229;48.734;9.340;2022-09-09T11:20:50;4.77;;;4.53;;
485;SDS011;229;48.734;9.340;2022-09-09T11:23:20;4.30;;;4.00;;
485;SDS011;229;48.734;9.340;2022-09-09T11:25:50;5.20;;;4.50;;
485;SDS011;229;48.734;9.340;2022-09-09T11:28:32;4.80;;;4.50;;
485;SDS011;229;48.734;9.340;2022-09-09T11:31:08;5.00;;;4.70;;
485;SDS011;229;48.734;9.340;2022-09-09T11:33:53;5.30;;;4.10;;
485;SDS011;229;48.734;9.340;2022-09-09T11:36:27;6.13;;;4.13;;
485;SDS011;229;48.734;9.340;2022-09-09T11:38:56;5.07;;;4.67;;
485;SDS011;229;48.734;9.340;2022-09-09T11:41:32;4.53;;;4.10;;
485;SDS011;229;48.734;9.340;2022-09-09T11:44:08;4.80;;;4.50;;
485;SDS011;229;48.734;9.340;2022-09-09T11:46:37;4.37;;;4.07;;
485;SDS011;229;48.734;9.340;2022-09-09T11:49:06;5.13;;;4.83;;
485;SDS011;229;48.734;9.340;2022-09-09T11:51:33;4.60;;;4.30;;
485;SDS011;229;48.734;9.340;2022-09-09T11:54:01;5.60;;;3.70;;
485;SDS011;229;48.734;9.340;2022-09-09T11:56:41;5.10;;;4.20;;
485;SDS011;229;48.734;9.340;2022-09-09T11:59:19;8.20;;;5.00;;
485;SDS011;229;48.734;9.340;2022-09-09T12:01:48;5.07;;;4.23;;
485;SDS011;229;48.734;9.340;2022-09-09T12:04:34;4.40;;;4.10;;
485;SDS011;229;48.734;9.340;2022-09-09T12:07:03;9.93;;;7.83;;
485;SDS011;229;48.734;9.340;2022-09-09T12:12:27;5.60;;;4.47;;
485;SDS011;229;48.734;9.340;2022-09-09T12:14:55;5.03;;;4.73;;
485;SDS011;229;48.734;9.340;2022-09-09T12:17:25;5.40;;;5.10;;
485;SDS011;229;48.734;9.340;2022-09-09T12:20:00;5.33;;;5.03;;
485;SDS011;229;48.734;9.340;2022-09-09T12:22:32;4.93;;;4.63;;
485;SDS011;229;48.734;9.340;2022-09-09T12:25:03;4.50;;;4.20;;
485;SDS011;229;48.734;9.340;2022-09-09T12:27:35;4.50;;;4.20;;
485;SDS011;229;48.734;9.340;2022-09-09T12:30:08;4.30;;;4.00;;
485;SDS011;229;48.734;9.340;2022-09-09T12:32:36;4.07;;;3.87;;
485;SDS011;229;48.734;9.340;2022-09-09T12:35:09;3.83;;;3.63;;
485;SDS011;229;48.734;9.340;2022-09-09T12:37:37;4.43;;;4.00;;
485;SDS011;229;48.734;9.340;2022-09-09T12:40:05;3.57;;;3.37;;
485;SDS011;229;48.734;9.340;2022-09-09T12:42:33;16.00;;;5.10;;
485;SDS011;229;48.734;9.340;2022-09-09T12:45:14;5.03;;;4.73;;
485;SDS011;229;48.734;9.340;2022-09-09T12:47:43;3.30;;;3.10;;
485;SDS011;229;48.734;9.340;2022-09-09T12:50:16;3.00;;;2.80;;
485;SDS011;229;48.734;9.340;2022-09-09T12:52:44;4.23;;;3.60;;
485;SDS011;229;48.734;9.340;2022-09-09T12:55:15;4.43;;;3.63;;
485;SDS011;229;48.734;9.340;2022-09-09T12:57:43;5.83;;;3.60;;
485;SDS011;229;48.734;9.340;2022-09-09T13:00:12;4.63;;;4.33;;
485;SDS011;229;48.734;9.340;2022-09-09T13:02:48;4.50;;;3.63;;
485;SDS011;229;48.734;9.340;2022-09-09T13:05:18;3.77;;;3.57;;
485;SDS011;229;48.734;9.340;2022-09-09T13:07:46;6.60;;;3.93;;
485;SDS011;229;48.734;9.340;2022-09-09T13:10:14;5.20;;;4.63;;
485;SDS011;229;48.734;9.340;2022-09-09T13:12:41;4.57;;;4.20;;
485;SDS011;229;48.734;9.340;2022-09-09T13:15:12;4.67;;;4.37;;
485;SDS011;229;48.734;9.340;2022-09-09T13:17:41;9.37;;;5.13;;
485;SDS011;229;48.734;9.340;2022-09-09T13:20:15;5.43;;;4.67;;
485;SDS011;229;48.734;9.340;2022-09-09T13:22:45;3.70;;;3.47;;
485;SDS011;229;48.734;9.340;2022-09-09T13:25:18;8.27;;;3.90;;
485;SDS011;229;48.734;9.340;2022-09-09T13:27:51;3.93;;;3.73;;
485;SDS011;229;48.734;9.340;2022-09-09T13:30:20;4.53;;;4.23;;
485;SDS011;229;48.734;9.340;2022-09-09T13:32:59;4.70;;;4.40;;
485;SDS011;229;48.734;9.340;2022-09-09T13:35:27;4.50;;;4.20;;
485;SDS011;229;48.734;9.340;2022-09-09T13:37:55;4.50;;;4.20;;
485;SDS011;229;48.734;9.340;2022-09-09T13:40:23;4.90;;;4.00;;
485;SDS011;229;48.734;9.340;2022-09-09T13:42:51;4.90;;;4.60;;
485;SDS011;229;48.734;9.340;2022-09-09T13:45:19;4.80;;;4.50;;
485;SDS011;229;48.734;9.340;2022-09-09T13:47:46;4.60;;;4.30;;
485;SDS011;229;48.734;9.340;2022-09-09T13:50:20;4.37;;;4.07;;
485;SDS011;229;48.734;9.340;2022-09-09T13:52:48;4.33;;;3.87;;
485;SDS011;229;48.734;9.340;2022-09-09T13:55:17;4.50;;;4.20;;
485;SDS011;229;48.734;9.340;2022-09-09T13:57:50;5.23;;;4.20;;
485;SDS011;229;48.734;9.340;2022-09-09T14:00:17;5.87;;;3.90;;
485;SDS011;229;48.734;9.340;2022-09-09T14:02:44;5.13;;;4.83;;
485;SDS011;229;48.734;9.340;2022-09-09T14:05:12;4.77;;;4.47;;
485;SDS011;229;48.734;9.340;2022-09-09T14:07:40;5.03;;;4.43;;
485;SDS011;229;48.734;9.340;2022-09-09T14:10:07;4.33;;;4.00;;
485;SDS011;229;48.734;9.340;2022-09-09T14:12:36;4.13;;;3.77;;
485;SDS011;229;48.734;9.340;2022-09-09T14:15:03;4.00;;;3.80;;
485;SDS011;229;48.734;9.340;2022-09-09T14:17:30;4.77;;;4.47;;
485;SDS011;229;48.734;9.340;2022-09-09T14:19:58;4.70;;;4.13;;
485;SDS011;229;48.734;9.340;2022-09-09T14:22:25;4.07;;;3.87;;
485;SDS011;229;48.734;9.340;2022-09-09T14:24:53;3.77;;;3.57;;
485;SDS011;229;48.734;9.340;2022-09-09T14:27:21;3.90;;;3.70;;
485;SDS011;229;48.734;9.340;2022-09-09T14:29:52;3.60;;;3.40;;
485;SDS011;229;48.734;9.340;2022-09-09T14:32:19;4.07;;;3.50;;
485;SDS011;229;48.734;9.340;2022-09-09T14:34:47;3.80;;;3.60;;
485;SDS011;229;48.734;9.340;2022-09-09T14:37:15;5.20;;;3.70;;
485;SDS011;229;48.734;9.340;2022-09-09T14:39:42;4.33;;;3.67;;
485;SDS011;229;48.734;9.340;2022-09-09T14:42:09;3.67;;;3.50;;
485;SDS011;229;48.734;9.340;2022-09-09T14:44:36;3.93;;;3.27;;
485;SDS011;229;48.734;9.340;2022-09-09T14:47:05;8.50;;;3.60;;
485;SDS011;229;48.734;9.340;2022-09-09T14:49:33;6.73;;;4.00;;
485;SDS011;229;48.734;9.340;2022-09-09T14:52:00;4.30;;;4.00;;
485;SDS011;229;48.734;9.340;2022-09-09T14:54:28;4.50;;;3.67;;
485;SDS011;229;48.734;9.340;2022-09-09T14:56:55;3.70;;;3.50;;
485;SDS011;229;48.734;9.340;2022-09-09T14:59:22;3.63;;;3.43;;
485;SDS011;229;48.734;9.340;2022-09-09T15:01:50;5.00;;;3.30;;
485;SDS011;229;48.734;9.340;2022-09-09T15:04:19;3.93;;;3.70;;
485;SDS011;229;48.734;9.340;2022-09-09T15:06:47;3.20;;;3.00;;
485;SDS011;229;48.734;9.340;2022-09-09T15:09:15;3.93;;;3.73;;
485;SDS011;229;48.734;9.340;2022-09-09T15:11:42;5.97;;;4.60;;
485;SDS011;229;48.734;9.340;2022-09-09T15:14:10;5.90;;;4.07;;
485;SDS011;229;48.734;9.340;2022-09-09T15:16:37;3.60;;;3.40;;
485;SDS011;229;48.734;9.340;2022-09-09T15:19:04;3.80;;;3.33;;
485;SDS011;229;48.734;9.340;2022-09-09T15:21:34;3.00;;;2.80;;
485;SDS011;229;48.734;9.340;2022-09-09T15:24:01;4.87;;;3.23;;
485;SDS011;229;48.734;9.340;2022-09-09T15:26:29;3.60;;;3.40;;
485;SDS011;229;48.734;9.340;2022-09-09T15:28:56;3.63;;;3.40;;
485;SDS011;229;48.734;9.340;2022-09-09T15:31:25;3.30;;;3.10;;
485;SDS011;229;48.734;9.340;2022-09-09T15:33:54;4.03;;;3.00;;
485;SDS011;229;48.734;9.340;2022-09-09T15:36:26;6.30;;;2.73;;
485;SDS011;229;48.734;9.340;2022-09-09T15:38:55;4.43;;;2.87;;
485;SDS011;229;48.734;9.340;2022-09-09T15:41:22;4.47;;;3.30;;
485;SDS011;229;48.734;9.340;2022-09-09T15:43:50;5.50;;;3.93;;
485;SDS011;229;48.734;9.340;2022-09-09T15:46:21;3.60;;;3.40;;
485;SDS011;229;48.734;9.340;2022-09-09T15:48:51;3.60;;;3.40;;
485;SDS011;229;48.734;9.340;2022-09-09T15:51:19;5.80;;;3.40;;
485;SDS011;229;48.734;9.340;2022-09-09T15:53:47;4.17;;;3.10;;
485;SDS011;229;48.734;9.340;2022-09-09T15:56:15;5.50;;;3.37;;
485;SDS011;229;48.734;9.340;2022-09-09T15:58:43;3.90;;;3.20;;
485;SDS011;229;48.734;9.340;2022-09-09T16:01:10;3.70;;;3.50;;
485;SDS011;229;48.734;9.340;2022-09-09T16:03:38;3.77;;;3.57;;
485;SDS011;229;48.734;9.340;2022-09-09T16:06:06;4.20;;;3.10;;
485;SDS011;229;48.734;9.340;2022-09-09T16:08:47;3.40;;;3.03;;
485;SDS011;229;48.734;9.340;2022-09-09T16:11:17;4.57;;;3.30;;
485;SDS011;229;48.734;9.340;2022-09-09T16:13:46;3.60;;;3.40;;